sensor_id;sensor_type;location;lat;lon;timestamp;P1;durP1;ratioP1;P2;durP2;ratioP2
2289;SDS011;1153;47.986;7.898;2023-04-24T00:02:14;0.70;;;0.20;;
2289;SDS011;1153;47.986;7.898;2023-04-24T00:04:39;0.80;;;0.20;;
2289;SDS011;1153;47.986;7.898;2023-04-24T00:07:05;1.33;;;0.20;;
2289;SDS011;1153;47.986;7.898;2023-04-24T00:09:31;4.33;;;0.23;;
2289;SDS011;1153;47.986;7.898;2023-04-24T00:11:56;0.90;;;0.40;;
2289;SDS011;1153;47.986;7.898;2023-04-24T00:14:22;1.10;;;0.30;;
2289;SDS011;1153;47.986;7.898;2023-04-24T00:16:47;0.40;;;0.20;;
2289;SDS011;1153;47.986;7.898;2023-04-24T00:19:12;1.60;;;0.20;;
2289;SDS011;1153;47.986;7.898;2023-04-24T00:21:38;0.97;;;0.20;;
2289;SDS011;1153;47.986;7.898;2023-04-24T00:24:03;2.87;;;0.20;;
2289;SDS011;1153;47.986;7.898;2023-04-24T00:26:28;0.50;;;0.20;;
2289;SDS011;1153;47.986;7.898;2023-04-24T00:28:53;0.60;;;0.30;;
2289;SDS011;1153;47.986;7.898;2023-04-24T00:31:18;0.50;;;0.20;;
2289;SDS011;1153;47.986;7.898;2023-04-24T00:33:44;0.60;;;0.20;;
2289;SDS011;1153;47.986;7.898;2023-04-24T00:36:09;0.77;;;0.20;;
2289;SDS011;1153;47.986;7.898;2023-04-24T00:38:34;0.50;;;0.20;;
2289;SDS011;1153;47.986;7.898;2023-04-24T00:40:59;0.50;;;0.20;;
2289;SDS011;1153;47.986;7.898;2023-04-24T00:43:25;1.43;;;0.30;;
2289;SDS011;1153;47.986;7.898;2023-04-24T00:45:50;0.70;;;0.27;;
2289;SDS011;1153;47.986;7.898;2023-04-24T00:48:15;2.77;;;0.27;;
2289;SDS011;1153;47.986;7.898;2023-04-24T00:50:41;0.40;;;0.20;;
2289;SDS011;1153;47.986;7.898;2023-04-24T00:53:06;0.50;;;0.20;;
2289;SDS011;1153;47.986;7.898;2023-04-24T00:55:31;0.50;;;0.20;;
2289;SDS011;1153;47.986;7.898;2023-04-24T00:57:57;0.93;;;0.40;;
2289;SDS011;1153;47.986;7.898;2023-04-24T01:00:22;1.00;;;0.20;;
2289;SDS011;1153;47.986;7.898;2023-04-24T01:02:48;0.40;;;0.20;;
2289;SDS011;1153;47.986;7.898;2023-04-24T01:05:13;4.47;;;0.20;;
2289;SDS011;1153;47.986;7.898;2023-04-24T01:07:40;0.60;;;0.20;;
2289;SDS011;1153;47.986;7.898;2023-04-24T01:10:08;0.60;;;0.20;;
2289;SDS011;1153;47.986;7.898;2023-04-24T01:12:34;2.10;;;0.20;;
2289;SDS011;1153;47.986;7.898;2023-04-24T01:14:59;0.50;;;0.20;;
2289;SDS011;1153;47.986;7.898;2023-04-24T01:17:25;0.50;;;0.20;;
2289;SDS011;1153;47.986;7.898;2023-04-24T01:19:50;0.50;;;0.20;;
2289;SDS011;1153;47.986;7.898;2023-04-24T01:22:18;0.40;;;0.20;;
2289;SDS011;1153;47.986;7.898;2023-04-24T01:24:43;0.70;;;0.30;;
2289;SDS011;1153;47.986;7.898;2023-04-24T01:27:09;1.40;;;0.20;;
2289;SDS011;1153;47.986;7.898;2023-04-24T01:29:35;1.33;;;0.20;;
2289;SDS011;1153;47.986;7.898;2023-04-24T01:32:01;0.70;;;0.40;;
2289;SDS011;1153;47.986;7.898;2023-04-24T01:34:26;0.50;;;0.20;;
2289;SDS011;1153;47.986;7.898;2023-04-24T01:36:52;0.50;;;0.20;;
2289;SDS011;1153;47.986;7.898;2023-04-24T01:39:17;1.90;;;0.30;;
2289;SDS011;1153;47.986;7.898;2023-04-24T01:41:42;1.57;;;0.30;;
2289;SDS011;1153;47.986;7.898;2023-04-24T01:44:07;1.33;;;0.20;;
2289;SDS011;1153;47.986;7.898;2023-04-24T01:46:33;0.50;;;0.30;;
2289;SDS011;1153;47.986;7.898;2023-04-24T01:48:59;1.00;;;0.30;;
2289;SDS011;1153;47.986;7.898;2023-04-24T01:51:25;0.60;;;0.20;;
2289;SDS011;1153;47.986;7.898;2023-04-24T01:53:50;0.60;;;0.20;;
2289;SDS011;1153;47.986;7.898;2023-04-24T01:56:16;0.60;;;0.40;;
2289;SDS011;1153;47.986;7.898;2023-04-24T01:58:41;0.60;;;0.20;;
2289;SDS011;1153;47.986;7.898;2023-04-24T02:01:07;4.93;;;0.30;;
2289;SDS011;1153;47.986;7.898;2023-04-24T02:03:32;0.50;;;0.30;;
2289;SDS011;1153;47.986;7.898;2023-04-24T02:05:57;0.80;;;0.30;;
2289;SDS011;1153;47.986;7.898;2023-04-24T02:08:22;3.80;;;0.23;;
2289;SDS011;1153;47.986;7.898;2023-04-24T02:10:47;1.73;;;0.23;;
2289;SDS011;1153;47.986;7.898;2023-04-24T02:13:13;0.70;;;0.30;;
2289;SDS011;1153;47.986;7.898;2023-04-24T02:15:38;1.17;;;0.20;;
2289;SDS011;1153;47.986;7.898;2023-04-24T02:18:03;3.60;;;0.20;;
2289;SDS011;1153;47.986;7.898;2023-04-24T02:20:28;1.13;;;0.20;;
2289;SDS011;1153;47.986;7.898;2023-04-24T02:22:53;1.27;;;0.20;;
2289;SDS011;1153;47.986;7.898;2023-04-24T02:25:19;0.90;;;0.40;;
2289;SDS011;1153;47.986;7.898;2023-04-24T02:27:45;0.93;;;0.20;;
2289;SDS011;1153;47.986;7.898;2023-04-24T02:30:10;0.70;;;0.27;;
2289;SDS011;1153;47.986;7.898;2023-04-24T02:32:35;1.13;;;0.20;;
2289;SDS011;1153;47.986;7.898;2023-04-24T02:35:01;0.83;;;0.20;;
2289;SDS011;1153;47.986;7.898;2023-04-24T02:37:26;0.97;;;0.30;;
2289;SDS011;1153;47.986;7.898;2023-04-24T02:39:51;1.63;;;0.40;;
2289;SDS011;1153;47.986;7.898;2023-04-24T02:42:16;2.50;;;0.23;;
2289;SDS011;1153;47.986;7.898;2023-04-24T02:44:42;0.47;;;0.20;;
2289;SDS011;1153;47.986;7.898;2023-04-24T02:47:07;6.23;;;0.30;;
2289;SDS011;1153;47.986;7.898;2023-04-24T02:49:33;0.40;;;0.20;;
2289;SDS011;1153;47.986;7.898;2023-04-24T02:51:58;0.53;;;0.20;;
2289;SDS011;1153;47.986;7.898;2023-04-24T02:54:23;0.73;;;0.30;;
2289;SDS011;1153;47.986;7.898;2023-04-24T02:56:49;0.70;;;0.30;;
2289;SDS011;1153;47.986;7.898;2023-04-24T02:59:14;0.43;;;0.20;;
2289;SDS011;1153;47.986;7.898;2023-04-24T03:01:39;0.50;;;0.27;;
2289;SDS011;1153;47.986;7.898;2023-04-24T03:04:05;1.97;;;0.30;;
2289;SDS011;1153;47.986;7.898;2023-04-24T03:06:30;1.10;;;0.20;;
2289;SDS011;1153;47.986;7.898;2023-04-24T03:08:57;1.27;;;0.20;;
2289;SDS011;1153;47.986;7.898;2023-04-24T03:11:22;0.53;;;0.20;;
2289;SDS011;1153;47.986;7.898;2023-04-24T03:13:48;2.50;;;0.30;;
2289;SDS011;1153;47.986;7.898;2023-04-24T03:16:13;0.50;;;0.20;;
2289;SDS011;1153;47.986;7.898;2023-04-24T03:18:38;0.57;;;0.20;;
2289;SDS011;1153;47.986;7.898;2023-04-24T03:21:03;0.50;;;0.20;;
2289;SDS011;1153;47.986;7.898;2023-04-24T03:23:28;3.57;;;0.30;;
2289;SDS011;1153;47.986;7.898;2023-04-24T03:25:54;1.90;;;0.20;;
2289;SDS011;1153;47.986;7.898;2023-04-24T03:28:20;0.50;;;0.20;;
2289;SDS011;1153;47.986;7.898;2023-04-24T03:30:45;1.57;;;0.23;;
2289;SDS011;1153;47.986;7.898;2023-04-24T03:33:10;0.70;;;0.20;;
2289;SDS011;1153;47.986;7.898;2023-04-24T03:35:35;0.40;;;0.20;;
2289;SDS011;1153;47.986;7.898;2023-04-24T03:38:01;0.50;;;0.20;;
2289;SDS011;1153;47.986;7.898;2023-04-24T03:40:26;0.90;;;0.20;;
2289;SDS011;1153;47.986;7.898;2023-04-24T03:42:53;0.97;;;0.20;;
2289;SDS011;1153;47.986;7.898;2023-04-24T03:45:18;1.90;;;0.20;;
2289;SDS011;1153;47.986;7.898;2023-04-24T03:47:43;0.50;;;0.20;;
2289;SDS011;1153;47.986;7.898;2023-04-24T03:50:09;0.50;;;0.20;;
2289;SDS011;1153;47.986;7.898;2023-04-24T03:52:34;0.60;;;0.20;;
2289;SDS011;1153;47.986;7.898;2023-04-24T03:55:00;0.80;;;0.20;;
2289;SDS011;1153;47.986;7.898;2023-04-24T03:57:25;0.50;;;0.20;;
2289;SDS011;1153;47.986;7.898;2023-04-24T03:59:50;4.70;;;0.30;;
2289;SDS011;1153;47.986;7.898;2023-04-24T04:02:16;0.93;;;0.30;;
2289;SDS011;1153;47.986;7.898;2023-04-24T04:04:41;1.33;;;0.20;;
2289;SDS011;1153;47.986;7.898;2023-04-24T04:07:06;0.63;;;0.30;;
2289;SDS011;1153;47.986;7.898;2023-04-24T04:09:32;0.50;;;0.30;;
2289;SDS011;1153;47.986;7.898;2023-04-24T04:11:58;2.60;;;0.30;;
2289;SDS011;1153;47.986;7.898;2023-04-24T04:14:23;3.43;;;0.30;;
2289;SDS011;1153;47.986;7.898;2023-04-24T04:16:49;0.60;;;0.30;;
2289;SDS011;1153;47.986;7.898;2023-04-24T04:19:14;0.60;;;0.43;;
2289;SDS011;1153;47.986;7.898;2023-04-24T04:21:39;0.70;;;0.40;;
2289;SDS011;1153;47.986;7.898;2023-04-24T04:24:05;0.77;;;0.40;;
2289;SDS011;1153;47.986;7.898;2023-04-24T04:26:30;0.80;;;0.37;;
2289;SDS011;1153;47.986;7.898;2023-04-24T04:28:57;0.90;;;0.30;;
2289;SDS011;1153;47.986;7.898;2023-04-24T04:31:22;1.37;;;0.30;;
2289;SDS011;1153;47.986;7.898;2023-04-24T04:33:48;1.83;;;0.30;;
2289;SDS011;1153;47.986;7.898;2023-04-24T04:36:13;0.87;;;0.37;;
2289;SDS011;1153;47.986;7.898;2023-04-24T04:38:38;0.80;;;0.30;;
2289;SDS011;1153;47.986;7.898;2023-04-24T04:41:05;0.50;;;0.30;;
2289;SDS011;1153;47.986;7.898;2023-04-24T04:43:30;0.70;;;0.30;;
2289;SDS011;1153;47.986;7.898;2023-04-24T04:45:57;0.60;;;0.30;;
2289;SDS011;1153;47.986;7.898;2023-04-24T04:48:22;1.63;;;0.30;;
2289;SDS011;1153;47.986;7.898;2023-04-24T04:50:48;0.70;;;0.30;;
2289;SDS011;1153;47.986;7.898;2023-04-24T04:53:13;0.90;;;0.50;;
2289;SDS011;1153;47.986;7.898;2023-04-24T04:55:38;1.93;;;0.30;;
2289;SDS011;1153;47.986;7.898;2023-04-24T04:58:03;0.83;;;0.40;;
2289;SDS011;1153;47.986;7.898;2023-04-24T05:00:29;0.70;;;0.40;;
2289;SDS011;1153;47.986;7.898;2023-04-24T05:02:58;1.63;;;0.40;;
2289;SDS011;1153;47.986;7.898;2023-04-24T05:05:23;0.70;;;0.37;;
2289;SDS011;1153;47.986;7.898;2023-04-24T05:07:49;0.70;;;0.40;;
2289;SDS011;1153;47.986;7.898;2023-04-24T05:10:14;0.60;;;0.30;;
2289;SDS011;1153;47.986;7.898;2023-04-24T05:12:39;0.60;;;0.33;;
2289;SDS011;1153;47.986;7.898;2023-04-24T05:15:04;0.63;;;0.37;;
2289;SDS011;1153;47.986;7.898;2023-04-24T05:17:30;0.93;;;0.50;;
2289;SDS011;1153;47.986;7.898;2023-04-24T05:19:55;2.20;;;0.40;;
2289;SDS011;1153;47.986;7.898;2023-04-24T05:22:20;1.83;;;0.50;;
2289;SDS011;1153;47.986;7.898;2023-04-24T05:24:46;1.10;;;0.50;;
2289;SDS011;1153;47.986;7.898;2023-04-24T05:27:11;0.80;;;0.50;;
2289;SDS011;1153;47.986;7.898;2023-04-24T05:29:36;0.50;;;0.30;;
2289;SDS011;1153;47.986;7.898;2023-04-24T05:32:01;5.43;;;0.70;;
2289;SDS011;1153;47.986;7.898;2023-04-24T05:34:26;6.70;;;0.73;;
2289;SDS011;1153;47.986;7.898;2023-04-24T05:36:52;0.90;;;0.50;;
2289;SDS011;1153;47.986;7.898;2023-04-24T05:39:17;0.60;;;0.40;;
2289;SDS011;1153;47.986;7.898;2023-04-24T05:41:42;0.60;;;0.40;;
2289;SDS011;1153;47.986;7.898;2023-04-24T05:44:08;6.43;;;0.60;;
2289;SDS011;1153;47.986;7.898;2023-04-24T05:46:33;0.77;;;0.50;;
2289;SDS011;1153;47.986;7.898;2023-04-24T05:48:58;0.90;;;0.53;;
2289;SDS011;1153;47.986;7.898;2023-04-24T05:51:24;0.70;;;0.70;;
2289;SDS011;1153;47.986;7.898;2023-04-24T05:53:49;1.17;;;0.40;;
2289;SDS011;1153;47.986;7.898;2023-04-24T05:56:14;1.00;;;0.50;;
2289;SDS011;1153;47.986;7.898;2023-04-24T05:58:40;1.63;;;0.60;;
2289;SDS011;1153;47.986;7.898;2023-04-24T06:01:05;1.20;;;0.50;;
2289;SDS011;1153;47.986;7.898;2023-04-24T06:03:31;6.30;;;0.93;;
2289;SDS011;1153;47.986;7.898;2023-04-24T06:05:56;1.00;;;0.70;;
2289;SDS011;1153;47.986;7.898;2023-04-24T06:08:21;1.93;;;0.60;;
2289;SDS011;1153;47.986;7.898;2023-04-24T06:10:46;7.33;;;0.60;;
2289;SDS011;1153;47.986;7.898;2023-04-24T06:13:11;3.63;;;0.80;;
2289;SDS011;1153;47.986;7.898;2023-04-24T06:15:37;4.70;;;0.47;;
2289;SDS011;1153;47.986;7.898;2023-04-24T06:18:02;2.13;;;0.60;;
2289;SDS011;1153;47.986;7.898;2023-04-24T06:20:27;4.20;;;0.90;;
2289;SDS011;1153;47.986;7.898;2023-04-24T06:22:53;1.10;;;0.67;;
2289;SDS011;1153;47.986;7.898;2023-04-24T06:25:18;4.37;;;0.90;;
2289;SDS011;1153;47.986;7.898;2023-04-24T06:27:44;2.80;;;0.93;;
2289;SDS011;1153;47.986;7.898;2023-04-24T06:30:09;1.37;;;1.27;;
2289;SDS011;1153;47.986;7.898;2023-04-24T06:32:34;0.90;;;0.50;;
2289;SDS011;1153;47.986;7.898;2023-04-24T06:35:00;1.10;;;0.77;;
2289;SDS011;1153;47.986;7.898;2023-04-24T06:37:25;0.60;;;0.50;;
2289;SDS011;1153;47.986;7.898;2023-04-24T06:39:50;0.70;;;0.60;;
2289;SDS011;1153;47.986;7.898;2023-04-24T06:42:15;1.80;;;0.67;;
2289;SDS011;1153;47.986;7.898;2023-04-24T06:44:41;2.03;;;0.60;;
2289;SDS011;1153;47.986;7.898;2023-04-24T06:47:09;1.00;;;0.60;;
2289;SDS011;1153;47.986;7.898;2023-04-24T06:49:35;2.53;;;0.80;;
2289;SDS011;1153;47.986;7.898;2023-04-24T06:52:00;0.80;;;0.60;;
2289;SDS011;1153;47.986;7.898;2023-04-24T06:54:26;3.40;;;0.80;;
2289;SDS011;1153;47.986;7.898;2023-04-24T06:56:51;1.00;;;0.60;;
2289;SDS011;1153;47.986;7.898;2023-04-24T06:59:17;2.20;;;0.70;;
2289;SDS011;1153;47.986;7.898;2023-04-24T07:01:42;0.90;;;0.60;;
2289;SDS011;1153;47.986;7.898;2023-04-24T07:04:07;0.70;;;0.50;;
2289;SDS011;1153;47.986;7.898;2023-04-24T07:06:32;1.27;;;0.60;;
2289;SDS011;1153;47.986;7.898;2023-04-24T07:08:57;1.37;;;1.10;;
2289;SDS011;1153;47.986;7.898;2023-04-24T07:11:24;1.50;;;1.40;;
2289;SDS011;1153;47.986;7.898;2023-04-24T07:13:54;0.90;;;0.80;;
2289;SDS011;1153;47.986;7.898;2023-04-24T07:16:19;0.80;;;0.50;;
2289;SDS011;1153;47.986;7.898;2023-04-24T07:18:44;0.73;;;0.43;;
2289;SDS011;1153;47.986;7.898;2023-04-24T07:21:10;0.80;;;0.50;;
2289;SDS011;1153;47.986;7.898;2023-04-24T07:23:35;0.97;;;0.50;;
2289;SDS011;1153;47.986;7.898;2023-04-24T07:26:01;0.90;;;0.50;;
2289;SDS011;1153;47.986;7.898;2023-04-24T07:28:26;1.43;;;0.70;;
2289;SDS011;1153;47.986;7.898;2023-04-24T07:30:51;3.10;;;0.50;;
2289;SDS011;1153;47.986;7.898;2023-04-24T07:33:18;0.70;;;0.50;;
2289;SDS011;1153;47.986;7.898;2023-04-24T07:35:44;0.70;;;0.50;;
2289;SDS011;1153;47.986;7.898;2023-04-24T07:38:09;0.90;;;0.60;;
2289;SDS011;1153;47.986;7.898;2023-04-24T07:40:34;0.77;;;0.50;;
2289;SDS011;1153;47.986;7.898;2023-04-24T07:42:59;2.60;;;0.60;;
2289;SDS011;1153;47.986;7.898;2023-04-24T07:45:24;4.60;;;0.50;;
2289;SDS011;1153;47.986;7.898;2023-04-24T07:47:51;0.87;;;0.47;;
2289;SDS011;1153;47.986;7.898;2023-04-24T07:50:16;0.90;;;0.50;;
2289;SDS011;1153;47.986;7.898;2023-04-24T07:52:41;0.80;;;0.50;;
2289;SDS011;1153;47.986;7.898;2023-04-24T07:55:06;1.00;;;0.50;;
2289;SDS011;1153;47.986;7.898;2023-04-24T07:57:32;3.17;;;0.60;;
2289;SDS011;1153;47.986;7.898;2023-04-24T07:59:57;0.90;;;0.60;;
2289;SDS011;1153;47.986;7.898;2023-04-24T08:02:22;0.80;;;0.60;;
2289;SDS011;1153;47.986;7.898;2023-04-24T08:04:51;2.03;;;0.70;;
2289;SDS011;1153;47.986;7.898;2023-04-24T08:07:17;5.60;;;0.60;;
2289;SDS011;1153;47.986;7.898;2023-04-24T08:09:42;0.73;;;0.43;;
2289;SDS011;1153;47.986;7.898;2023-04-24T08:12:07;1.27;;;0.80;;
2289;SDS011;1153;47.986;7.898;2023-04-24T08:14:32;3.53;;;0.80;;
2289;SDS011;1153;47.986;7.898;2023-04-24T08:16:57;3.90;;;0.60;;
2289;SDS011;1153;47.986;7.898;2023-04-24T08:19:25;0.90;;;0.60;;
2289;SDS011;1153;47.986;7.898;2023-04-24T08:21:50;3.63;;;0.77;;
2289;SDS011;1153;47.986;7.898;2023-04-24T08:24:15;4.83;;;0.70;;
2289;SDS011;1153;47.986;7.898;2023-04-24T08:26:40;1.27;;;1.17;;
2289;SDS011;1153;47.986;7.898;2023-04-24T08:29:06;1.30;;;0.97;;
2289;SDS011;1153;47.986;7.898;2023-04-24T08:31:31;1.00;;;0.60;;
2289;SDS011;1153;47.986;7.898;2023-04-24T08:33:57;1.00;;;0.67;;
2289;SDS011;1153;47.986;7.898;2023-04-24T08:36:22;1.10;;;0.90;;
2289;SDS011;1153;47.986;7.898;2023-04-24T08:38:48;1.63;;;0.70;;
2289;SDS011;1153;47.986;7.898;2023-04-24T08:41:14;0.90;;;0.60;;
2289;SDS011;1153;47.986;7.898;2023-04-24T08:43:40;2.50;;;0.70;;
2289;SDS011;1153;47.986;7.898;2023-04-24T08:46:05;1.20;;;0.70;;
2289;SDS011;1153;47.986;7.898;2023-04-24T08:48:30;1.10;;;0.67;;
2289;SDS011;1153;47.986;7.898;2023-04-24T08:50:56;1.60;;;0.90;;
2289;SDS011;1153;47.986;7.898;2023-04-24T08:53:21;1.00;;;0.70;;
2289;SDS011;1153;47.986;7.898;2023-04-24T08:55:47;1.93;;;0.67;;
2289;SDS011;1153;47.986;7.898;2023-04-24T08:58:13;0.90;;;0.70;;
2289;SDS011;1153;47.986;7.898;2023-04-24T09:00:38;1.20;;;0.60;;
2289;SDS011;1153;47.986;7.898;2023-04-24T09:03:04;1.47;;;0.70;;
2289;SDS011;1153;47.986;7.898;2023-04-24T09:05:30;0.70;;;0.40;;
2289;SDS011;1153;47.986;7.898;2023-04-24T09:07:56;0.80;;;0.50;;
2289;SDS011;1153;47.986;7.898;2023-04-24T09:10:24;1.37;;;1.27;;
2289;SDS011;1153;47.986;7.898;2023-04-24T09:12:50;1.73;;;1.03;;
2289;SDS011;1153;47.986;7.898;2023-04-24T09:15:15;2.40;;;0.67;;
2289;SDS011;1153;47.986;7.898;2023-04-24T09:17:40;3.37;;;0.77;;
2289;SDS011;1153;47.986;7.898;2023-04-24T09:20:06;0.83;;;0.50;;
2289;SDS011;1153;47.986;7.898;2023-04-24T09:22:31;0.90;;;0.50;;
2289;SDS011;1153;47.986;7.898;2023-04-24T09:25:15;0.80;;;0.40;;
2289;SDS011;1153;47.986;7.898;2023-04-24T09:27:41;1.37;;;0.40;;
2289;SDS011;1153;47.986;7.898;2023-04-24T09:30:07;1.00;;;0.40;;
2289;SDS011;1153;47.986;7.898;2023-04-24T09:32:33;0.70;;;0.50;;
2289;SDS011;1153;47.986;7.898;2023-04-24T09:35:08;1.67;;;0.50;;
2289;SDS011;1153;47.986;7.898;2023-04-24T09:37:38;4.67;;;0.50;;
2289;SDS011;1153;47.986;7.898;2023-04-24T09:42:38;0.80;;;0.40;;
2289;SDS011;1153;47.986;7.898;2023-04-24T09:45:04;2.83;;;0.30;;
2289;SDS011;1153;47.986;7.898;2023-04-24T09:47:35;3.07;;;0.43;;
2289;SDS011;1153;47.986;7.898;2023-04-24T09:50:01;0.70;;;0.50;;
2289;SDS011;1153;47.986;7.898;2023-04-24T09:52:33;2.00;;;0.50;;
2289;SDS011;1153;47.986;7.898;2023-04-24T09:54:58;1.00;;;0.40;;
2289;SDS011;1153;47.986;7.898;2023-04-24T09:57:23;2.20;;;0.40;;
2289;SDS011;1153;47.986;7.898;2023-04-24T09:59:49;1.00;;;0.47;;
2289;SDS011;1153;47.986;7.898;2023-04-24T10:02:18;0.87;;;0.40;;
2289;SDS011;1153;47.986;7.898;2023-04-24T10:04:53;0.63;;;0.40;;
2289;SDS011;1153;47.986;7.898;2023-04-24T10:07:19;0.70;;;0.40;;
2289;SDS011;1153;47.986;7.898;2023-04-24T10:09:44;0.90;;;0.40;;
2289;SDS011;1153;47.986;7.898;2023-04-24T10:12:09;0.70;;;0.33;;
2289;SDS011;1153;47.986;7.898;2023-04-24T10:14:35;0.70;;;0.40;;
2289;SDS011;1153;47.986;7.898;2023-04-24T10:17:01;1.57;;;0.30;;
2289;SDS011;1153;47.986;7.898;2023-04-24T10:19:26;1.30;;;0.40;;
2289;SDS011;1153;47.986;7.898;2023-04-24T10:21:51;0.63;;;0.40;;
2289;SDS011;1153;47.986;7.898;2023-04-24T10:24:17;0.67;;;0.40;;
2289;SDS011;1153;47.986;7.898;2023-04-24T10:26:43;0.93;;;0.50;;
2289;SDS011;1153;47.986;7.898;2023-04-24T10:29:10;0.70;;;0.40;;
2289;SDS011;1153;47.986;7.898;2023-04-24T10:31:37;2.80;;;0.37;;
2289;SDS011;1153;47.986;7.898;2023-04-24T10:34:04;0.70;;;0.40;;
2289;SDS011;1153;47.986;7.898;2023-04-24T10:36:30;1.83;;;0.43;;
2289;SDS011;1153;47.986;7.898;2023-04-24T10:38:57;0.70;;;0.40;;
2289;SDS011;1153;47.986;7.898;2023-04-24T10:41:24;0.50;;;0.40;;
2289;SDS011;1153;47.986;7.898;2023-04-24T10:46:35;3.30;;;0.40;;
2289;SDS011;1153;47.986;7.898;2023-04-24T10:49:03;0.60;;;0.40;;
2289;SDS011;1153;47.986;7.898;2023-04-24T10:56:47;0.87;;;0.40;;
2289;SDS011;1153;47.986;7.898;2023-04-24T10:59:13;1.13;;;0.40;;
2289;SDS011;1153;47.986;7.898;2023-04-24T11:01:52;0.87;;;0.40;;
2289;SDS011;1153;47.986;7.898;2023-04-24T11:04:21;1.03;;;0.30;;
2289;SDS011;1153;47.986;7.898;2023-04-24T11:06:53;0.60;;;0.30;;
2289;SDS011;1153;47.986;7.898;2023-04-24T11:09:18;0.63;;;0.40;;
2289;SDS011;1153;47.986;7.898;2023-04-24T11:11:46;3.73;;;0.50;;
2289;SDS011;1153;47.986;7.898;2023-04-24T11:14:13;2.40;;;0.60;;
2289;SDS011;1153;47.986;7.898;2023-04-24T11:16:42;0.90;;;0.40;;
2289;SDS011;1153;47.986;7.898;2023-04-24T11:19:08;0.80;;;0.50;;
2289;SDS011;1153;47.986;7.898;2023-04-24T11:21:40;0.80;;;0.40;;
2289;SDS011;1153;47.986;7.898;2023-04-24T11:26:51;0.60;;;0.40;;
2289;SDS011;1153;47.986;7.898;2023-04-24T11:29:17;0.90;;;0.50;;
2289;SDS011;1153;47.986;7.898;2023-04-24T11:31:44;0.70;;;0.50;;
2289;SDS011;1153;47.986;7.898;2023-04-24T11:34:14;2.63;;;0.50;;
2289;SDS011;1153;47.986;7.898;2023-04-24T11:36:44;0.80;;;0.40;;
2289;SDS011;1153;47.986;7.898;2023-04-24T11:39:10;0.70;;;0.50;;
2289;SDS011;1153;47.986;7.898;2023-04-24T11:41:36;1.17;;;0.40;;
2289;SDS011;1153;47.986;7.898;2023-04-24T11:44:01;1.63;;;0.53;;
2289;SDS011;1153;47.986;7.898;2023-04-24T11:46:28;2.50;;;0.50;;
2289;SDS011;1153;47.986;7.898;2023-04-24T11:48:54;0.90;;;0.53;;
2289;SDS011;1153;47.986;7.898;2023-04-24T11:51:19;1.57;;;0.40;;
2289;SDS011;1153;47.986;7.898;2023-04-24T11:53:44;0.80;;;0.40;;
2289;SDS011;1153;47.986;7.898;2023-04-24T11:56:09;1.10;;;0.40;;
2289;SDS011;1153;47.986;7.898;2023-04-24T11:58:35;0.80;;;0.50;;
2289;SDS011;1153;47.986;7.898;2023-04-24T12:01:01;0.60;;;0.40;;
2289;SDS011;1153;47.986;7.898;2023-04-24T12:03:26;0.73;;;0.40;;
2289;SDS011;1153;47.986;7.898;2023-04-24T12:05:51;1.60;;;0.50;;
2289;SDS011;1153;47.986;7.898;2023-04-24T12:08:28;0.70;;;0.40;;
2289;SDS011;1153;47.986;7.898;2023-04-24T12:10:54;0.83;;;0.50;;
2289;SDS011;1153;47.986;7.898;2023-04-24T12:13:19;2.70;;;0.73;;
2289;SDS011;1153;47.986;7.898;2023-04-24T12:15:45;1.80;;;0.50;;
2289;SDS011;1153;47.986;7.898;2023-04-24T12:18:11;0.83;;;0.50;;
2289;SDS011;1153;47.986;7.898;2023-04-24T12:20:37;0.60;;;0.30;;
2289;SDS011;1153;47.986;7.898;2023-04-24T12:23:02;1.23;;;0.40;;
2289;SDS011;1153;47.986;7.898;2023-04-24T12:25:31;3.77;;;0.70;;
2289;SDS011;1153;47.986;7.898;2023-04-24T12:30:29;0.90;;;0.50;;
2289;SDS011;1153;47.986;7.898;2023-04-24T12:32:56;1.30;;;0.70;;
2289;SDS011;1153;47.986;7.898;2023-04-24T12:35:22;0.80;;;0.50;;
2289;SDS011;1153;47.986;7.898;2023-04-24T12:37:47;0.93;;;0.50;;
2289;SDS011;1153;47.986;7.898;2023-04-24T12:40:13;3.07;;;0.60;;
2289;SDS011;1153;47.986;7.898;2023-04-24T12:42:45;1.03;;;0.50;;
2289;SDS011;1153;47.986;7.898;2023-04-24T12:45:11;1.20;;;0.67;;
2289;SDS011;1153;47.986;7.898;2023-04-24T12:47:40;1.70;;;0.60;;
2289;SDS011;1153;47.986;7.898;2023-04-24T12:50:05;0.80;;;0.67;;
2289;SDS011;1153;47.986;7.898;2023-04-24T12:52:31;0.90;;;0.50;;
2289;SDS011;1153;47.986;7.898;2023-04-24T12:54:57;2.07;;;0.67;;
2289;SDS011;1153;47.986;7.898;2023-04-24T12:57:23;5.30;;;0.63;;
2289;SDS011;1153;47.986;7.898;2023-04-24T12:59:48;2.57;;;1.00;;
2289;SDS011;1153;47.986;7.898;2023-04-24T13:02:13;0.90;;;0.43;;
2289;SDS011;1153;47.986;7.898;2023-04-24T13:04:42;1.10;;;0.83;;
2289;SDS011;1153;47.986;7.898;2023-04-24T13:07:07;2.50;;;0.50;;
2289;SDS011;1153;47.986;7.898;2023-04-24T13:09:33;0.97;;;0.50;;
2289;SDS011;1153;47.986;7.898;2023-04-24T13:11:59;2.40;;;0.50;;
2289;SDS011;1153;47.986;7.898;2023-04-24T13:14:25;1.50;;;0.50;;
2289;SDS011;1153;47.986;7.898;2023-04-24T13:16:51;1.30;;;0.80;;
2289;SDS011;1153;47.986;7.898;2023-04-24T13:19:16;3.00;;;0.80;;
2289;SDS011;1153;47.986;7.898;2023-04-24T13:21:43;0.80;;;0.60;;
2289;SDS011;1153;47.986;7.898;2023-04-24T13:24:08;3.63;;;0.50;;
2289;SDS011;1153;47.986;7.898;2023-04-24T13:26:34;1.63;;;0.60;;
2289;SDS011;1153;47.986;7.898;2023-04-24T13:28:59;0.93;;;0.57;;
2289;SDS011;1153;47.986;7.898;2023-04-24T13:31:25;0.80;;;0.50;;
2289;SDS011;1153;47.986;7.898;2023-04-24T13:33:50;0.80;;;0.50;;
2289;SDS011;1153;47.986;7.898;2023-04-24T13:36:15;2.53;;;0.50;;
2289;SDS011;1153;47.986;7.898;2023-04-24T13:38:42;0.83;;;0.60;;
2289;SDS011;1153;47.986;7.898;2023-04-24T13:41:07;0.70;;;0.40;;
2289;SDS011;1153;47.986;7.898;2023-04-24T13:43:32;4.67;;;0.70;;
2289;SDS011;1153;47.986;7.898;2023-04-24T13:45:58;1.43;;;0.50;;
2289;SDS011;1153;47.986;7.898;2023-04-24T13:48:24;0.90;;;0.50;;
2289;SDS011;1153;47.986;7.898;2023-04-24T13:50:49;1.40;;;0.70;;
2289;SDS011;1153;47.986;7.898;2023-04-24T13:53:14;1.43;;;0.50;;
2289;SDS011;1153;47.986;7.898;2023-04-24T13:55:40;2.13;;;0.60;;
2289;SDS011;1153;47.986;7.898;2023-04-24T13:58:05;1.00;;;0.70;;
2289;SDS011;1153;47.986;7.898;2023-04-24T14:00:31;1.00;;;0.60;;
2289;SDS011;1153;47.986;7.898;2023-04-24T14:02:56;3.70;;;0.60;;
2289;SDS011;1153;47.986;7.898;2023-04-24T14:05:21;1.20;;;0.67;;
2289;SDS011;1153;47.986;7.898;2023-04-24T14:07:47;0.90;;;0.50;;
2289;SDS011;1153;47.986;7.898;2023-04-24T14:10:12;0.80;;;0.70;;
2289;SDS011;1153;47.986;7.898;2023-04-24T14:12:37;0.90;;;0.50;;
2289;SDS011;1153;47.986;7.898;2023-04-24T14:15:03;1.47;;;0.73;;
2289;SDS011;1153;47.986;7.898;2023-04-24T14:17:29;1.30;;;1.20;;
2289;SDS011;1153;47.986;7.898;2023-04-24T14:19:55;5.10;;;0.70;;
2289;SDS011;1153;47.986;7.898;2023-04-24T14:22:21;1.97;;;0.60;;
2289;SDS011;1153;47.986;7.898;2023-04-24T14:24:46;0.97;;;0.57;;
2289;SDS011;1153;47.986;7.898;2023-04-24T14:27:12;1.07;;;0.70;;
2289;SDS011;1153;47.986;7.898;2023-04-24T14:29:37;0.70;;;0.50;;
2289;SDS011;1153;47.986;7.898;2023-04-24T14:32:02;0.83;;;0.70;;
2289;SDS011;1153;47.986;7.898;2023-04-24T14:34:27;0.70;;;0.40;;
2289;SDS011;1153;47.986;7.898;2023-04-24T14:36:53;3.90;;;0.70;;
2289;SDS011;1153;47.986;7.898;2023-04-24T14:39:18;0.70;;;0.50;;
2289;SDS011;1153;47.986;7.898;2023-04-24T14:41:43;0.70;;;0.50;;
2289;SDS011;1153;47.986;7.898;2023-04-24T14:44:08;1.30;;;0.60;;
2289;SDS011;1153;47.986;7.898;2023-04-24T14:46:34;1.47;;;0.50;;
2289;SDS011;1153;47.986;7.898;2023-04-24T14:48:59;1.43;;;0.60;;
2289;SDS011;1153;47.986;7.898;2023-04-24T14:51:24;0.93;;;0.60;;
2289;SDS011;1153;47.986;7.898;2023-04-24T14:53:50;3.90;;;0.60;;
2289;SDS011;1153;47.986;7.898;2023-04-24T14:56:15;2.33;;;0.50;;
2289;SDS011;1153;47.986;7.898;2023-04-24T14:58:40;0.93;;;0.83;;
2289;SDS011;1153;47.986;7.898;2023-04-24T15:01:06;0.80;;;0.50;;
2289;SDS011;1153;47.986;7.898;2023-04-24T15:03:31;1.13;;;0.40;;
2289;SDS011;1153;47.986;7.898;2023-04-24T15:05:56;1.23;;;0.90;;
2289;SDS011;1153;47.986;7.898;2023-04-24T15:08:21;1.70;;;0.63;;
2289;SDS011;1153;47.986;7.898;2023-04-24T15:10:46;2.20;;;0.60;;
2289;SDS011;1153;47.986;7.898;2023-04-24T15:13:12;2.80;;;0.90;;
2289;SDS011;1153;47.986;7.898;2023-04-24T15:15:37;1.67;;;0.70;;
2289;SDS011;1153;47.986;7.898;2023-04-24T15:18:03;0.70;;;0.47;;
2289;SDS011;1153;47.986;7.898;2023-04-24T15:20:28;3.67;;;0.87;;
2289;SDS011;1153;47.986;7.898;2023-04-24T15:22:54;1.63;;;0.70;;